sensor_id;sensor_type;location;lat;lon;timestamp;pressure;altitude;pressure_sealevel;temperature;humidity
64841;BME280;51307;52.162;7.560;2022-10-16T00:01:06;100547.44;;;12.50;100.00
64841;BME280;51307;52.162;7.560;2022-10-16T00:03:31;100542.06;;;12.51;100.00
64841;BME280;51307;52.162;7.560;2022-10-16T00:06:00;100539.44;;;12.51;100.00
64841;BME280;51307;52.162;7.560;2022-10-16T00:08:27;100544.84;;;12.50;100.00
64841;BME280;51307;52.162;7.560;2022-10-16T00:10:52;100552.53;;;12.51;100.00
64841;BME280;51307;52.162;7.560;2022-10-16T00:13:23;100544.66;;;12.51;100.00
64841;BME280;51307;52.162;7.560;2022-10-16T00:15:49;100540.25;;;12.52;100.00
64841;BME280;51307;52.162;7.560;2022-10-16T00:18:14;100552.38;;;12.53;100.00
64841;BME280;51307;52.162;7.560;2022-10-16T00:20:40;100549.75;;;12.53;100.00
64841;BME280;51307;52.162;7.560;2022-10-16T00:23:05;100542.53;;;12.55;100.00
64841;BME280;51307;52.162;7.560;2022-10-16T00:25:31;100539.91;;;12.55;100.00
64841;BME280;51307;52.162;7.560;2022-10-16T00:27:59;100542.22;;;12.50;100.00
64841;BME280;51307;52.162;7.560;2022-10-16T00:30:25;100547.44;;;12.50;100.00
64841;BME280;51307;52.162;7.560;2022-10-16T00:32:52;100551.06;;;12.49;100.00
64841;BME280;51307;52.162;7.560;2022-10-16T00:35:18;100550.25;;;12.48;100.00
64841;BME280;51307;52.162;7.560;2022-10-16T00:37:43;100540.75;;;12.47;100.00
64841;BME280;51307;52.162;7.560;2022-10-16T00:40:09;100542.94;;;12.44;100.00
64841;BME280;51307;52.162;7.560;2022-10-16T00:42:35;100545.88;;;12.41;100.00
64841;BME280;51307;52.162;7.560;2022-10-16T00:45:00;100549.50;;;12.40;100.00
64841;BME280;51307;52.162;7.560;2022-10-16T00:47:30;100546.88;;;12.40;100.00
64841;BME280;51307;52.162;7.560;2022-10-16T00:50:16;100548.03;;;12.37;100.00
64841;BME280;51307;52.162;7.560;2022-10-16T00:52:47;100546.22;;;12.38;100.00
64841;BME280;51307;52.162;7.560;2022-10-16T00:55:13;100541.94;;;12.37;100.00
64841;BME280;51307;52.162;7.560;2022-10-16T00:57:41;100544.56;;;12.37;100.00
64841;BME280;51307;52.162;7.560;2022-10-16T01:00:10;100533.66;;;12.33;100.00
64841;BME280;51307;52.162;7.560;2022-10-16T01:02:36;100538.88;;;12.33;100.00
64841;BME280;51307;52.162;7.560;2022-10-16T01:05:04;100534.59;;;12.32;100.00
64841;BME280;51307;52.162;7.560;2022-10-16T01:07:47;100538.88;;;12.33;100.00
64841;BME280;51307;52.162;7.560;2022-10-16T01:10:31;100533.16;;;12.29;100.00
64841;BME280;51307;52.162;7.560;2022-10-16T01:13:10;100532.34;;;12.29;100.00
64841;BME280;51307;52.162;7.560;2022-10-16T01:21:04;100538.38;;;12.29;100.00
64841;BME280;51307;52.162;7.560;2022-10-16T01:26:10;100541.53;;;12.25;100.00
64841;BME280;51307;52.162;7.560;2022-10-16T01:28:55;100550.19;;;12.25;100.00
64841;BME280;51307;52.162;7.560;2022-10-16T01:31:29;100540.56;;;12.26;100.00
64841;BME280;51307;52.162;7.560;2022-10-16T01:34:04;100533.31;;;12.28;100.00
64841;BME280;51307;52.162;7.560;2022-10-16T01:36:49;100536.94;;;12.27;100.00
64841;BME280;51307;52.162;7.560;2022-10-16T01:39:21;100535.31;;;12.26;100.00
64841;BME280;51307;52.162;7.560;2022-10-16T01:42:04;100538.91;;;12.25;100.00
64841;BME280;51307;52.162;7.560;2022-10-16T01:44:34;100541.53;;;12.25;100.00
64841;BME280;51307;52.162;7.560;2022-10-16T01:47:03;100539.56;;;12.27;100.00
64841;BME280;51307;52.162;7.560;2022-10-16T01:49:36;100542.16;;;12.27;100.00
64841;BME280;51307;52.162;7.560;2022-10-16T01:52:07;100541.16;;;12.28;100.00
64841;BME280;51307;52.162;7.560;2022-10-16T01:54:38;100541.16;;;12.28;100.00
64841;BME280;51307;52.162;7.560;2022-10-16T01:57:08;100542.00;;;12.28;100.00
64841;BME280;51307;52.162;7.560;2022-10-16T01:59:40;100543.63;;;12.29;100.00
64841;BME280;51307;52.162;7.560;2022-10-16T02:02:10;100541.66;;;12.31;100.00
64841;BME280;51307;52.162;7.560;2022-10-16T02:04:44;100542.47;;;12.32;100.00
64841;BME280;51307;52.162;7.560;2022-10-16T02:07:11;100545.09;;;12.32;100.00
64841;BME280;51307;52.162;7.560;2022-10-16T02:09:38;100549.66;;;12.30;100.00
64841;BME280;51307;52.162;7.560;2022-10-16T02:12:15;100546.41;;;12.28;100.00
64841;BME280;51307;52.162;7.560;2022-10-16T02:14:44;100548.41;;;12.26;100.00
64841;BME280;51307;52.162;7.560;2022-10-16T02:17:16;100537.75;;;12.27;100.00
64841;BME280;51307;52.162;7.560;2022-10-16T02:19:42;100546.41;;;12.28;100.00
64841;BME280;51307;52.162;7.560;2022-10-16T02:22:16;100545.78;;;12.26;100.00
64841;BME280;51307;52.162;7.560;2022-10-16T02:25:00;100544.13;;;12.25;100.00
64841;BME280;51307;52.162;7.560;2022-10-16T02:27:57;100542.53;;;12.24;100.00
64841;BME280;51307;52.162;7.560;2022-10-16T02:33:07;100549.72;;;12.22;100.00
64841;BME280;51307;52.162;7.560;2022-10-16T02:35:36;100542.84;;;12.21;100.00
64841;BME280;51307;52.162;7.560;2022-10-16T02:38:03;100539.56;;;12.19;100.00
64841;BME280;51307;52.162;7.560;2022-10-16T02:40:29;100545.31;;;12.22;100.00
64841;BME280;51307;52.162;7.560;2022-10-16T02:42:55;100536.81;;;12.20;100.00
64841;BME280;51307;52.162;7.560;2022-10-16T02:45:22;100540.41;;;12.19;100.00
64841;BME280;51307;52.162;7.560;2022-10-16T02:47:48;100545.66;;;12.19;100.00
64841;BME280;51307;52.162;7.560;2022-10-16T02:50:14;100546.91;;;12.23;100.00
64841;BME280;51307;52.162;7.560;2022-10-16T02:52:40;100546.09;;;12.23;100.00
64841;BME280;51307;52.162;7.560;2022-10-16T02:55:05;100543.34;;;12.24;100.00
64841;BME280;51307;52.162;7.560;2022-10-16T02:57:31;100547.56;;;12.25;100.00
64841;BME280;51307;52.162;7.560;2022-10-16T02:59:57;100544.13;;;12.25;100.00
64841;BME280;51307;52.162;7.560;2022-10-16T03:02:22;100552.00;;;12.25;100.00
64841;BME280;51307;52.162;7.560;2022-10-16T03:04:48;100563.28;;;12.25;100.00
64841;BME280;51307;52.162;7.560;2022-10-16T03:07:13;100558.03;;;12.25;100.00
64841;BME280;51307;52.162;7.560;2022-10-16T03:09:39;100552.00;;;12.25;100.00
64841;BME280;51307;52.162;7.560;2022-10-16T03:12:04;100552.81;;;12.25;100.00
64841;BME280;51307;52.162;7.560;2022-10-16T03:14:30;100551.03;;;12.26;100.00
64841;BME280;51307;52.162;7.560;2022-10-16T03:16:55;100552.81;;;12.25;100.00
64841;BME280;51307;52.162;7.560;2022-10-16T03:19:22;100551.03;;;12.26;100.00
64841;BME280;51307;52.162;7.560;2022-10-16T03:21:47;100560.66;;;12.25;100.00
64841;BME280;51307;52.162;7.560;2022-10-16T03:24:13;100557.22;;;12.25;100.00
64841;BME280;51307;52.162;7.560;2022-10-16T03:26:38;100557.38;;;12.23;100.00
64841;BME280;51307;52.162;7.560;2022-10-16T03:29:03;100558.38;;;12.22;100.00
64841;BME280;51307;52.162;7.560;2022-10-16T03:31:29;100563.78;;;12.21;100.00
64841;BME280;51307;52.162;7.560;2022-10-16T03:33:56;100568.38;;;12.19;100.00
64841;BME280;51307;52.162;7.560;2022-10-16T03:36:22;100576.22;;;12.19;100.00
64841;BME280;51307;52.162;7.560;2022-10-16T03:38:47;100569.22;;;12.19;100.00
64841;BME280;51307;52.162;7.560;2022-10-16T03:41:13;100562.97;;;12.20;100.00
64841;BME280;51307;52.162;7.560;2022-10-16T03:43:38;100557.91;;;12.19;100.00
64841;BME280;51307;52.162;7.560;2022-10-16T03:46:04;100561.34;;;12.19;100.00
64841;BME280;51307;52.162;7.560;2022-10-16T03:48:30;100559.56;;;12.20;100.00
64841;BME280;51307;52.162;7.560;2022-10-16T03:50:55;100562.31;;;12.18;100.00
64841;BME280;51307;52.162;7.560;2022-10-16T03:53:21;100554.63;;;12.17;100.00
64841;BME280;51307;52.162;7.560;2022-10-16T03:55:47;100554.47;;;12.18;100.00
64841;BME280;51307;52.162;7.560;2022-10-16T03:58:12;100556.94;;;12.20;100.00
64841;BME280;51307;52.162;7.560;2022-10-16T04:00:45;100558.75;;;12.19;100.00
64841;BME280;51307;52.162;7.560;2022-10-16T04:03:12;100572.63;;;12.20;100.00
64841;BME280;51307;52.162;7.560;2022-10-16T04:05:37;100563.13;;;12.19;100.00
64841;BME280;51307;52.162;7.560;2022-10-16T04:08:03;100566.75;;;12.18;100.00
64841;BME280;51307;52.162;7.560;2022-10-16T04:10:29;100571.34;;;12.16;100.00
64841;BME280;51307;52.162;7.560;2022-10-16T04:12:54;100568.22;;;12.12;100.00
64841;BME280;51307;52.162;7.560;2022-10-16T04:15:24;100569.22;;;12.11;100.00
64841;BME280;51307;52.162;7.560;2022-10-16T04:17:51;100571.34;;;12.07;100.00
64841;BME280;51307;52.162;7.560;2022-10-16T04:20:17;100574.13;;;12.06;100.00
64841;BME280;51307;52.162;7.560;2022-10-16T04:22:43;100580.19;;;12.06;100.00
64841;BME280;51307;52.162;7.560;2022-10-16T04:25:09;100593.28;;;12.06;100.00
64841;BME280;51307;52.162;7.560;2022-10-16T04:27:35;100597.53;;;12.07;100.00
64841;BME280;51307;52.162;7.560;2022-10-16T04:30:00;100593.09;;;12.08;100.00
64841;BME280;51307;52.162;7.560;2022-10-16T04:32:26;100581.81;;;12.07;100.00
64841;BME280;51307;52.162;7.560;2022-10-16T04:34:52;100587.41;;;12.04;100.00
64841;BME280;51307;52.162;7.560;2022-10-16T04:37:18;100583.97;;;12.04;100.00
64841;BME280;51307;52.162;7.560;2022-10-16T04:39:44;100597.88;;;12.04;100.00
64841;BME280;51307;52.162;7.560;2022-10-16T04:42:10;100589.22;;;12.04;100.00
64841;BME280;51307;52.162;7.560;2022-10-16T04:44:36;100592.78;;;12.03;100.00
64841;BME280;51307;52.162;7.560;2022-10-16T04:47:01;100592.16;;;12.01;100.00
64841;BME280;51307;52.162;7.560;2022-10-16T04:49:27;100596.72;;;11.99;100.00
64841;BME280;51307;52.162;7.560;2022-10-16T04:51:53;100599.34;;;11.99;100.00
64841;BME280;51307;52.162;7.560;2022-10-16T04:54:18;100601.31;;;11.97;100.00
64841;BME280;51307;52.162;7.560;2022-10-16T04:56:43;100602.16;;;11.97;100.00
64841;BME280;51307;52.162;7.560;2022-10-16T04:59:14;100603.75;;;11.98;100.00
64841;BME280;51307;52.162;7.560;2022-10-16T05:01:39;100603.59;;;12.00;100.00
64841;BME280;51307;52.162;7.560;2022-10-16T05:04:05;100614.88;;;12.00;100.00
64841;BME280;51307;52.162;7.560;2022-10-16T05:06:30;100602.78;;;11.99;100.00
64841;BME280;51307;52.162;7.560;2022-10-16T05:08:56;100610.81;;;11.98;100.00
64841;BME280;51307;52.162;7.560;2022-10-16T05:11:21;100617.84;;;11.97;100.00
64841;BME280;51307;52.162;7.560;2022-10-16T05:13:47;100609.81;;;11.99;100.00
64841;BME280;51307;52.162;7.560;2022-10-16T05:16:12;100610.81;;;11.98;100.00
64841;BME280;51307;52.162;7.560;2022-10-16T05:18:37;100607.38;;;11.97;100.00
64841;BME280;51307;52.162;7.560;2022-10-16T05:21:03;100609.16;;;11.97;100.00
64841;BME280;51307;52.162;7.560;2022-10-16T05:23:29;100618.81;;;11.96;100.00
64841;BME280;51307;52.162;7.560;2022-10-16T05:25:56;100619.81;;;11.95;100.00
64841;BME280;51307;52.162;7.560;2022-10-16T05:28:24;100637.28;;;11.94;100.00
64841;BME280;51307;52.162;7.560;2022-10-16T05:30:50;100639.91;;;11.94;100.00
64841;BME280;51307;52.162;7.560;2022-10-16T05:33:16;100641.41;;;11.97;100.00
64841;BME280;51307;52.162;7.560;2022-10-16T05:35:42;100647.25;;;11.99;100.00
64841;BME280;51307;52.162;7.560;2022-10-16T05:38:09;100645.47;;;12.00;100.00
64841;BME280;51307;52.162;7.560;2022-10-16T05:40:34;100645.63;;;11.98;100.00
64841;BME280;51307;52.162;7.560;2022-10-16T05:43:00;100654.31;;;11.99;100.00
64841;BME280;51307;52.162;7.560;2022-10-16T05:45:25;100652.03;;;11.96;100.00
64841;BME280;51307;52.162;7.560;2022-10-16T05:47:51;100654.78;;;11.94;100.00
64841;BME280;51307;52.162;7.560;2022-10-16T05:50:16;100654.00;;;11.93;100.00
64841;BME280;51307;52.162;7.560;2022-10-16T05:52:42;100655.13;;;11.91;100.00
64841;BME280;51307;52.162;7.560;2022-10-16T05:55:08;100657.75;;;11.91;100.00
64841;BME280;51307;52.162;7.560;2022-10-16T05:57:33;100654.34;;;11.90;100.00
64841;BME280;51307;52.162;7.560;2022-10-16T05:59:59;100660.53;;;11.89;100.00
64841;BME280;51307;52.162;7.560;2022-10-16T06:02:25;100678.03;;;11.89;100.00
64841;BME280;51307;52.162;7.560;2022-10-16T06:04:53;100673.75;;;11.88;100.00
64841;BME280;51307;52.162;7.560;2022-10-16T06:07:19;100682.47;;;11.88;100.00
64841;BME280;51307;52.162;7.560;2022-10-16T06:09:50;100681.97;;;11.85;100.00
64841;BME280;51307;52.162;7.560;2022-10-16T06:12:16;100686.38;;;11.84;100.00
64841;BME280;51307;52.162;7.560;2022-10-16T06:14:42;100680.31;;;11.84;100.00
64841;BME280;51307;52.162;7.560;2022-10-16T06:17:08;100691.44;;;11.86;100.00
64841;BME280;51307;52.162;7.560;2022-10-16T06:19:33;100689.81;;;11.85;100.00
64841;BME280;51307;52.162;7.560;2022-10-16T06:21:59;100690.78;;;11.84;100.00
64841;BME280;51307;52.162;7.560;2022-10-16T06:24:24;100695.38;;;11.82;100.00
64841;BME280;51307;52.162;7.560;2022-10-16T06:26:50;100698.00;;;11.82;100.00
64841;BME280;51307;52.162;7.560;2022-10-16T06:29:15;100700.44;;;11.83;100.00
64841;BME280;51307;52.162;7.560;2022-10-16T06:31:41;100707.47;;;11.83;100.00
64841;BME280;51307;52.162;7.560;2022-10-16T06:34:09;100705.84;;;11.82;100.00
64841;BME280;51307;52.162;7.560;2022-10-16T06:36:37;100719.56;;;11.84;100.00
64841;BME280;51307;52.162;7.560;2022-10-16T06:39:03;100726.94;;;11.88;100.00
64841;BME280;51307;52.162;7.560;2022-10-16T06:41:29;100737.06;;;11.91;100.00
64841;BME280;51307;52.162;7.560;2022-10-16T06:43:55;100734.31;;;11.93;100.00
64841;BME280;51307;52.162;7.560;2022-10-16T06:46:22;100727.09;;;11.95;100.00
64841;BME280;51307;52.162;7.560;2022-10-16T06:48:48;100734.31;;;11.93;100.00
64841;BME280;51307;52.162;7.560;2022-10-16T06:51:16;100741.97;;;11.94;100.00
64841;BME280;51307;52.162;7.560;2022-10-16T06:53:53;100735.91;;;11.94;100.00
64841;BME280;51307;52.162;7.560;2022-10-16T06:56:21;100743.63;;;11.96;100.00
64841;BME280;51307;52.162;7.560;2022-10-16T06:58:48;100755.72;;;11.97;100.00
64841;BME280;51307;52.162;7.560;2022-10-16T07:01:15;100765.03;;;11.99;100.00
64841;BME280;51307;52.162;7.560;2022-10-16T07:03:43;100771.91;;;12.00;100.00
64841;BME280;51307;52.162;7.560;2022-10-16T07:06:11;100785.97;;;11.99;100.00
64841;BME280;51307;52.162;7.560;2022-10-16T07:08:39;100786.81;;;12.00;100.00
64841;BME280;51307;52.162;7.560;2022-10-16T07:11:08;100791.19;;;11.99;100.00
64841;BME280;51307;52.162;7.560;2022-10-16T07:13:35;100796.28;;;12.01;100.00
64841;BME280;51307;52.162;7.560;2022-10-16T07:16:22;100794.47;;;12.01;100.00
64841;BME280;51307;52.162;7.560;2022-10-16T07:18:48;100803.16;;;12.02;100.00
64841;BME280;51307;52.162;7.560;2022-10-16T07:21:15;100809.38;;;12.01;100.00
64841;BME280;51307;52.162;7.560;2022-10-16T07:23:41;100816.06;;;12.03;100.00
64841;BME280;51307;52.162;7.560;2022-10-16T07:26:07;100815.78;;;12.06;100.00
64841;BME280;51307;52.162;7.560;2022-10-16T07:28:34;100822.47;;;12.09;100.00
64841;BME280;51307;52.162;7.560;2022-10-16T07:31:04;100828.38;;;12.11;100.00
64841;BME280;51307;52.162;7.560;2022-10-16T07:33:31;100827.22;;;12.13;100.00
64841;BME280;51307;52.162;7.560;2022-10-16T07:35:56;100833.94;;;12.16;100.00
64841;BME280;51307;52.162;7.560;2022-10-16T07:38:22;100841.47;;;12.19;100.00
64841;BME280;51307;52.162;7.560;2022-10-16T07:40:48;100845.56;;;12.22;100.00
64841;BME280;51307;52.162;7.560;2022-10-16T07:43:14;100852.13;;;12.26;100.00
64841;BME280;51307;52.162;7.560;2022-10-16T07:45:50;100853.41;;;12.30;100.00
64841;BME280;51307;52.162;7.560;2022-10-16T07:48:17;100858.34;;;12.33;100.00
64841;BME280;51307;52.162;7.560;2022-10-16T07:50:43;100857.84;;;12.38;100.00
64841;BME280;51307;52.162;7.560;2022-10-16T07:53:09;100858.50;;;12.40;100.00
64841;BME280;51307;52.162;7.560;2022-10-16T07:55:35;100862.44;;;12.44;100.00
64841;BME280;51307;52.162;7.560;2022-10-16T07:58:01;100866.53;;;12.46;100.00
64841;BME280;51307;52.162;7.560;2022-10-16T08:00:26;100866.19;;;12.49;100.00
64841;BME280;51307;52.162;7.560;2022-10-16T08:02:52;100865.88;;;12.52;100.00
64841;BME280;51307;52.162;7.560;2022-10-16T08:05:17;100867.34;;;12.55;100.00
64841;BME280;51307;52.162;7.560;2022-10-16T08:07:43;100868.81;;;12.58;100.00
64841;BME280;51307;52.162;7.560;2022-10-16T08:10:18;100873.91;;;12.59;100.00
64841;BME280;51307;52.162;7.560;2022-10-16T08:12:44;100874.22;;;12.64;100.00
64841;BME280;51307;52.162;7.560;2022-10-16T08:15:10;100885.34;;;12.66;100.00
64841;BME280;51307;52.162;7.560;2022-10-16T08:17:35;100881.25;;;12.72;100.00
64841;BME280;51307;52.162;7.560;2022-10-16T08:20:01;100878.31;;;12.75;100.00
64841;BME280;51307;52.162;7.560;2022-10-16T08:22:27;100887.47;;;12.79;100.00
64841;BME280;51307;52.162;7.560;2022-10-16T08:24:52;100883.38;;;12.85;100.00
64841;BME280;51307;52.162;7.560;2022-10-16T08:27:18;100882.88;;;12.89;100.00
64841;BME280;51307;52.162;7.560;2022-10-16T08:29:43;100892.03;;;12.93;100.00
64841;BME280;51307;52.162;7.560;2022-10-16T08:32:09;100899.41;;;12.98;100.00
64841;BME280;51307;52.162;7.560;2022-10-16T08:34:34;100888.41;;;13.03;100.00
64841;BME280;51307;52.162;7.560;2022-10-16T08:37:00;100899.44;;;13.06;100.00
64841;BME280;51307;52.162;7.560;2022-10-16T08:39:25;100906.94;;;13.09;100.00
64841;BME280;51307;52.162;7.560;2022-10-16T08:42:04;100913.50;;;13.13;100.00
64841;BME280;51307;52.162;7.560;2022-10-16T08:50:10;100917.59;;;13.24;100.00
64841;BME280;51307;52.162;7.560;2022-10-16T08:52:41;100923.31;;;13.28;100.00
64841;BME280;51307;52.162;7.560;2022-10-16T08:57:49;100931.34;;;13.34;100.00
64841;BME280;51307;52.162;7.560;2022-10-16T09:00:15;100926.56;;;13.38;100.00
64841;BME280;51307;52.162;7.560;2022-10-16T09:05:54;100930.81;;;13.47;100.00
64841;BME280;51307;52.162;7.560;2022-10-16T09:22:31;100956.03;;;13.65;100.00
64841;BME280;51307;52.162;7.560;2022-10-16T09:25:11;100958.78;;;13.71;100.00
64841;BME280;51307;52.162;7.560;2022-10-16T09:27:37;100969.25;;;13.79;100.00
64841;BME280;51307;52.162;7.560;2022-10-16T09:30:14;100968.91;;;13.83;100.00
64841;BME280;51307;52.162;7.560;2022-10-16T09:32:42;100980.88;;;13.85;100.00
64841;BME280;51307;52.162;7.560;2022-10-16T09:35:21;100973.66;;;13.87;100.00
64841;BME280;51307;52.162;7.560;2022-10-16T09:37:50;100989.56;;;13.86;100.00
64841;BME280;51307;52.162;7.560;2022-10-16T09:46:06;100987.09;;;13.92;100.00
64841;BME280;51307;52.162;7.560;2022-10-16T09:48:55;100996.94;;;13.90;100.00
64841;BME280;51307;52.162;7.560;2022-10-16T09:51:27;100995.13;;;13.91;100.00
64841;BME280;51307;52.162;7.560;2022-10-16T09:53:56;101006.28;;;13.93;100.00
64841;BME280;51307;52.162;7.560;2022-10-16T09:56:29;101012.69;;;13.90;100.00
64841;BME280;51307;52.162;7.560;2022-10-16T09:59:01;101012.81;;;13.97;100.00
64841;BME280;51307;52.162;7.560;2022-10-16T10:01:37;101013.47;;;13.99;100.00
64841;BME280;51307;52.162;7.560;2022-10-16T10:04:04;101014.41;;;14.06;100.00
64841;BME280;51307;52.162;7.560;2022-10-16T10:06:34;101015.06;;;14.08;100.00
64841;BME280;51307;52.162;7.560;2022-10-16T10:14:29;100995.84;;;14.16;100.00
64841;BME280;51307;52.162;7.560;2022-10-16T10:19:38;101003.91;;;14.23;100.00
64841;BME280;51307;52.162;7.560;2022-10-16T10:38:30;101043.34;;;14.46;100.00
64841;BME280;51307;52.162;7.560;2022-10-16T10:54:32;101030.41;;;14.44;100.00
64841;BME280;51307;52.162;7.560;2022-10-16T10:57:10;101038.41;;;14.51;100.00
64841;BME280;51307;52.162;7.560;2022-10-16T11:02:37;101031.09;;;14.61;100.00
64841;BME280;51307;52.162;7.560;2022-10-16T11:05:18;101033.09;;;14.59;99.42
64841;BME280;51307;52.162;7.560;2022-10-16T11:07:57;101036.34;;;14.61;98.73
64841;BME280;51307;52.162;7.560;2022-10-16T11:10:42;101039.09;;;14.68;99.18
64841;BME280;51307;52.162;7.560;2022-10-16T11:16:15;101044.16;;;14.77;99.01
64841;BME280;51307;52.162;7.560;2022-10-16T11:18:56;101045.09;;;14.85;98.49
64841;BME280;51307;52.162;7.560;2022-10-16T11:21:30;101043.75;;;14.89;97.78
64841;BME280;51307;52.162;7.560;2022-10-16T11:26:46;101043.34;;;15.00;96.34
64841;BME280;51307;52.162;7.560;2022-10-16T11:29:23;101047.44;;;15.02;97.55
64841;BME280;51307;52.162;7.560;2022-10-16T11:32:06;101041.00;;;15.05;95.92
64841;BME280;51307;52.162;7.560;2022-10-16T11:34:50;101049.81;;;15.12;95.96
64841;BME280;51307;52.162;7.560;2022-10-16T11:37:27;101049.91;;;15.19;97.07
64841;BME280;51307;52.162;7.560;2022-10-16T11:40:09;101046.94;;;15.22;93.88
64841;BME280;51307;52.162;7.560;2022-10-16T11:42:49;101054.56;;;15.17;93.06
64841;BME280;51307;52.162;7.560;2022-10-16T11:45:42;101058.81;;;15.18;93.24
64841;BME280;51307;52.162;7.560;2022-10-16T11:48:30;101057.31;;;15.23;93.46
64841;BME280;51307;52.162;7.560;2022-10-16T11:51:17;101056.94;;;15.27;92.64
64841;BME280;51307;52.162;7.560;2022-10-16T11:54:24;101061.88;;;15.30;92.92
64841;BME280;51307;52.162;7.560;2022-10-16T11:57:01;101069.69;;;15.38;91.45
64841;BME280;51307;52.162;7.560;2022-10-16T11:59:47;101072.81;;;15.41;91.59
64841;BME280;51307;52.162;7.560;2022-10-16T12:02:33;101073.09;;;15.47;92.39
64841;BME280;51307;52.162;7.560;2022-10-16T12:10:33;101078.28;;;15.55;89.81
64841;BME280;51307;52.162;7.560;2022-10-16T12:13:04;101077.00;;;15.51;87.72
64841;BME280;51307;52.162;7.560;2022-10-16T12:15:33;101081.44;;;15.50;87.84
64841;BME280;51307;52.162;7.560;2022-10-16T12:17:59;101071.25;;;15.47;86.89
64841;BME280;51307;52.162;7.560;2022-10-16T12:23:02;101075.34;;;15.50;86.82
64841;BME280;51307;52.162;7.560;2022-10-16T12:25:31;101076.81;;;15.52;86.77
64841;BME280;51307;52.162;7.560;2022-10-16T12:28:15;101075.66;;;15.55;87.68
64841;BME280;51307;52.162;7.560;2022-10-16T12:30:53;101083.66;;;15.61;89.19
64841;BME280;51307;52.162;7.560;2022-10-16T12:33:28;101083.75;;;15.68;88.75
64841;BME280;51307;52.162;7.560;2022-10-16T12:35:57;101089.28;;;15.73;88.37
64841;BME280;51307;52.162;7.560;2022-10-16T12:38:32;101090.56;;;15.77;86.87
64841;BME280;51307;52.162;7.560;2022-10-16T12:41:07;101097.75;;;15.83;88.29
64841;BME280;51307;52.162;7.560;2022-10-16T12:48:36;101100.91;;;15.94;84.80
64841;BME280;51307;52.162;7.560;2022-10-16T13:18:16;101125.75;;;16.14;84.38
64841;BME280;51307;52.162;7.560;2022-10-16T13:29:36;101132.19;;;16.26;84.50
64841;BME280;51307;52.162;7.560;2022-10-16T13:32:09;101129.00;;;16.31;83.74
64841;BME280;51307;52.162;7.560;2022-10-16T13:34:45;101136.38;;;16.36;83.50
64841;BME280;51307;52.162;7.560;2022-10-16T13:37:22;101131.22;;;16.42;83.23
64841;BME280;51307;52.162;7.560;2022-10-16T13:39:48;101132.69;;;16.45;82.02
64841;BME280;51307;52.162;7.560;2022-10-16T13:44:53;101125.03;;;16.50;81.19
64841;BME280;51307;52.162;7.560;2022-10-16T13:47:21;101133.56;;;16.52;81.43
64841;BME280;51307;52.162;7.560;2022-10-16T13:50:00;101137.84;;;16.53;80.62
64841;BME280;51307;52.162;7.560;2022-10-16T13:52:26;101143.75;;;16.55;80.42
64841;BME280;51307;52.162;7.560;2022-10-16T13:54:52;101144.59;;;16.56;80.05
64841;BME280;51307;52.162;7.560;2022-10-16T13:57:18;101146.66;;;16.60;80.38
64841;BME280;51307;52.162;7.560;2022-10-16T13:59:47;101155.84;;;16.64;80.89
64841;BME280;51307;52.162;7.560;2022-10-16T14:02:25;101151.00;;;16.68;80.92
64841;BME280;51307;52.162;7.560;2022-10-16T14:04:53;101155.28;;;16.69;81.13
64841;BME280;51307;52.162;7.560;2022-10-16T14:07:25;101147.81;;;16.73;80.83
64841;BME280;51307;52.162;7.560;2022-10-16T14:09:53;101153.72;;;16.75;81.31
64841;BME280;51307;52.162;7.560;2022-10-16T14:12:20;101148.81;;;16.72;81.20
64841;BME280;51307;52.162;7.560;2022-10-16T14:14:50;101149.00;;;16.70;81.68
64841;BME280;51307;52.162;7.560;2022-10-16T14:17:22;101152.66;;;16.69;81.12
64841;BME280;51307;52.162;7.560;2022-10-16T14:19:51;101143.16;;;16.75;81.36
64841;BME280;51307;52.162;7.560;2022-10-16T14:24:55;101155.38;;;16.76;81.15
64841;BME280;51307;52.162;7.560;2022-10-16T14:27:33;101150.09;;;16.76;81.90
64841;BME280;51307;52.162;7.560;2022-10-16T14:30:18;101160.66;;;16.76;82.18
64841;BME280;51307;52.162;7.560;2022-10-16T14:32:55;101162.66;;;16.74;82.39
64841;BME280;51307;52.162;7.560;2022-10-16T14:35:25;101149.25;;;16.75;82.35
64841;BME280;51307;52.162;7.560;2022-10-16T14:37:53;101156.34;;;16.75;81.96
64841;BME280;51307;52.162;7.560;2022-10-16T14:40:23;101158.00;;;16.76;82.81
64841;BME280;51307;52.162;7.560;2022-10-16T14:42:48;101153.72;;;16.75;82.12
64841;BME280;51307;52.162;7.560;2022-10-16T14:45:20;101161.47;;;16.76;82.99
64841;BME280;51307;52.162;7.560;2022-10-16T14:47:53;101171.63;;;16.79;82.78
64841;BME280;51307;52.162;7.560;2022-10-16T14:50:19;101170.63;;;16.80;81.28
64841;BME280;51307;52.162;7.560;2022-10-16T14:52:45;101161.88;;;16.80;81.12
64841;BME280;51307;52.162;7.560;2022-10-16T14:55:10;101169.38;;;16.76;81.80
64841;BME280;51307;52.162;7.560;2022-10-16T14:57:38;101168.09;;;16.72;81.51
64841;BME280;51307;52.162;7.560;2022-10-16T15:00:30;101174.09;;;16.66;82.17
64841;BME280;51307;52.162;7.560;2022-10-16T15:02:56;101171.66;;;16.64;82.93
64841;BME280;51307;52.162;7.560;2022-10-16T15:07:48;101174.19;;;16.58;82.33
64841;BME280;51307;52.162;7.560;2022-10-16T15:10:16;101167.13;;;16.58;82.79
64841;BME280;51307;52.162;7.560;2022-10-16T15:12:42;101170.09;;;16.55;82.05
64841;BME280;51307;52.162;7.560;2022-10-16T15:15:38;101184.66;;;16.51;82.11
64841;BME280;51307;52.162;7.560;2022-10-16T15:18:05;101181.56;;;16.48;82.08
64841;BME280;51307;52.162;7.560;2022-10-16T15:20:33;101177.50;;;16.45;82.20